sensor_id;sensor_type;location;lat;lon;timestamp;noise_LAeq;noise_LA_min;noise_LA_max;noise_LA01;noise_LA95
70245;Laerm;57637;49.272;8.590;2023-07-31T00:00:06;33.46;30.22;36.70;;
70245;Laerm;57637;49.272;8.590;2023-07-31T00:02:34;33.30;29.27;42.79;;
70245;Laerm;57637;49.272;8.590;2023-07-31T00:05:00;33.66;30.72;41.76;;
70245;Laerm;57637;49.272;8.590;2023-07-31T00:07:25;33.29;29.31;39.84;;
70245;Laerm;57637;49.272;8.590;2023-07-31T00:09:50;33.57;30.45;41.26;;
70245;Laerm;57637;49.272;8.590;2023-07-31T00:12:16;34.02;30.41;40.78;;
70245;Laerm;57637;49.272;8.590;2023-07-31T00:14:41;34.05;29.99;41.09;;
70245;Laerm;57637;49.272;8.590;2023-07-31T00:17:07;33.87;29.57;44.85;;
70245;Laerm;57637;49.272;8.590;2023-07-31T00:19:32;33.94;29.76;40.74;;
70245;Laerm;57637;49.272;8.590;2023-07-31T00:21:57;33.95;30.43;39.43;;
70245;Laerm;57637;49.272;8.590;2023-07-31T00:24:23;34.29;29.61;41.72;;
70245;Laerm;57637;49.272;8.590;2023-07-31T00:26:48;34.31;30.32;39.24;;
70245;Laerm;57637;49.272;8.590;2023-07-31T00:29:13;34.05;29.65;39.44;;
70245;Laerm;57637;49.272;8.590;2023-07-31T00:31:39;34.10;29.62;50.39;;
70245;Laerm;57637;49.272;8.590;2023-07-31T00:34:04;33.74;29.78;44.01;;
70245;Laerm;57637;49.272;8.590;2023-07-31T00:36:29;33.98;29.31;40.21;;
70245;Laerm;57637;49.272;8.590;2023-07-31T00:38:55;34.66;30.56;42.16;;
70245;Laerm;57637;49.272;8.590;2023-07-31T00:41:20;35.11;31.04;43.42;;
70245;Laerm;57637;49.272;8.590;2023-07-31T00:43:46;34.53;30.26;39.53;;
70245;Laerm;57637;49.272;8.590;2023-07-31T00:46:11;33.82;30.18;38.82;;
70245;Laerm;57637;49.272;8.590;2023-07-31T00:48:37;32.11;29.67;40.11;;
70245;Laerm;57637;49.272;8.590;2023-07-31T00:51:02;31.95;29.61;43.03;;
70245;Laerm;57637;49.272;8.590;2023-07-31T00:53:28;34.46;29.83;41.79;;
70245;Laerm;57637;49.272;8.590;2023-07-31T00:55:54;34.28;30.84;42.51;;
70245;Laerm;57637;49.272;8.590;2023-07-31T00:58:19;35.94;30.91;49.68;;
70245;Laerm;57637;49.272;8.590;2023-07-31T01:00:44;34.04;30.47;46.27;;
70245;Laerm;57637;49.272;8.590;2023-07-31T01:03:11;34.17;30.83;47.28;;
70245;Laerm;57637;49.272;8.590;2023-07-31T01:05:45;33.41;30.73;39.20;;
70245;Laerm;57637;49.272;8.590;2023-07-31T01:08:27;33.67;30.27;40.96;;
70245;Laerm;57637;49.272;8.590;2023-07-31T01:11:00;34.46;31.62;40.52;;
70245;Laerm;57637;49.272;8.590;2023-07-31T01:13:28;35.80;31.73;48.08;;
70245;Laerm;57637;49.272;8.590;2023-07-31T01:15:53;33.57;31.16;38.19;;
70245;Laerm;57637;49.272;8.590;2023-07-31T01:24:30;33.82;31.26;48.70;;
70245;Laerm;57637;49.272;8.590;2023-07-31T01:30:41;33.41;30.77;45.14;;
70245;Laerm;57637;49.272;8.590;2023-07-31T01:33:08;33.59;31.04;40.81;;
70245;Laerm;57637;49.272;8.590;2023-07-31T01:35:36;33.38;30.65;47.93;;
70245;Laerm;57637;49.272;8.590;2023-07-31T01:38:02;32.96;30.38;44.91;;
70245;Laerm;57637;49.272;8.590;2023-07-31T01:40:27;33.23;30.12;45.90;;
70245;Laerm;57637;49.272;8.590;2023-07-31T01:42:53;33.32;30.58;41.84;;
70245;Laerm;57637;49.272;8.590;2023-07-31T01:45:18;33.69;30.78;39.51;;
70245;Laerm;57637;49.272;8.590;2023-07-31T01:47:44;33.46;30.61;40.66;;
70245;Laerm;57637;49.272;8.590;2023-07-31T01:50:09;34.60;31.13;45.34;;
70245;Laerm;57637;49.272;8.590;2023-07-31T01:52:35;33.39;30.79;40.20;;
70245;Laerm;57637;49.272;8.590;2023-07-31T01:55:00;33.50;31.07;43.09;;
70245;Laerm;57637;49.272;8.590;2023-07-31T01:57:26;33.75;30.96;40.57;;
70245;Laerm;57637;49.272;8.590;2023-07-31T01:59:51;33.83;30.78;46.89;;
70245;Laerm;57637;49.272;8.590;2023-07-31T02:02:18;33.26;30.65;39.98;;
70245;Laerm;57637;49.272;8.590;2023-07-31T02:04:44;33.22;29.84;41.08;;
70245;Laerm;57637;49.272;8.590;2023-07-31T02:07:09;32.86;29.92;46.43;;
70245;Laerm;57637;49.272;8.590;2023-07-31T02:09:35;33.22;29.98;42.87;;
70245;Laerm;57637;49.272;8.590;2023-07-31T02:12:00;34.45;30.09;39.94;;
70245;Laerm;57637;49.272;8.590;2023-07-31T02:14:25;34.74;31.91;38.70;;
70245;Laerm;57637;49.272;8.590;2023-07-31T02:16:51;34.79;31.17;46.95;;
70245;Laerm;57637;49.272;8.590;2023-07-31T02:19:16;33.21;30.16;41.39;;
70245;Laerm;57637;49.272;8.590;2023-07-31T02:21:41;34.10;29.94;38.99;;
70245;Laerm;57637;49.272;8.590;2023-07-31T02:24:07;33.09;30.31;39.81;;
70245;Laerm;57637;49.272;8.590;2023-07-31T02:26:32;32.91;30.15;42.36;;
70245;Laerm;57637;49.272;8.590;2023-07-31T02:28:57;32.32;29.99;39.15;;
70245;Laerm;57637;49.272;8.590;2023-07-31T02:31:23;36.80;30.62;51.46;;
70245;Laerm;57637;49.272;8.590;2023-07-31T02:33:48;32.64;29.67;38.23;;
70245;Laerm;57637;49.272;8.590;2023-07-31T02:36:13;32.81;29.83;37.32;;
70245;Laerm;57637;49.272;8.590;2023-07-31T02:38:40;32.43;29.81;40.94;;
70245;Laerm;57637;49.272;8.590;2023-07-31T02:41:05;35.71;29.79;51.37;;
70245;Laerm;57637;49.272;8.590;2023-07-31T02:43:30;32.56;30.06;42.41;;
70245;Laerm;57637;49.272;8.590;2023-07-31T02:45:56;33.02;30.04;41.77;;
70245;Laerm;57637;49.272;8.590;2023-07-31T02:48:21;32.19;29.81;40.08;;
70245;Laerm;57637;49.272;8.590;2023-07-31T02:50:47;32.79;29.92;40.89;;
70245;Laerm;57637;49.272;8.590;2023-07-31T02:53:13;34.12;30.58;49.44;;
70245;Laerm;57637;49.272;8.590;2023-07-31T02:55:38;37.52;30.01;50.37;;
70245;Laerm;57637;49.272;8.590;2023-07-31T02:58:04;32.96;30.51;40.53;;
70245;Laerm;57637;49.272;8.590;2023-07-31T03:00:29;33.04;30.51;35.81;;
70245;Laerm;57637;49.272;8.590;2023-07-31T03:02:54;32.55;30.24;36.29;;
70245;Laerm;57637;49.272;8.590;2023-07-31T03:05:20;36.38;30.55;47.87;;
70245;Laerm;57637;49.272;8.590;2023-07-31T03:07:45;34.46;30.76;46.30;;
70245;Laerm;57637;49.272;8.590;2023-07-31T03:10:11;37.95;31.59;49.46;;
70245;Laerm;57637;49.272;8.590;2023-07-31T03:12:36;35.92;31.66;43.67;;
70245;Laerm;57637;49.272;8.590;2023-07-31T03:15:01;37.84;31.86;51.38;;
70245;Laerm;57637;49.272;8.590;2023-07-31T03:17:27;35.45;32.23;39.65;;
70245;Laerm;57637;49.272;8.590;2023-07-31T03:19:52;35.31;31.58;40.46;;
70245;Laerm;57637;49.272;8.590;2023-07-31T03:22:17;34.72;31.50;41.46;;
70245;Laerm;57637;49.272;8.590;2023-07-31T03:24:43;36.14;32.59;45.54;;
70245;Laerm;57637;49.272;8.590;2023-07-31T03:27:08;35.48;32.15;46.06;;
70245;Laerm;57637;49.272;8.590;2023-07-31T03:29:33;38.46;32.64;48.40;;
70245;Laerm;57637;49.272;8.590;2023-07-31T03:31:59;36.16;32.56;47.61;;
70245;Laerm;57637;49.272;8.590;2023-07-31T03:34:24;36.10;33.03;42.33;;
70245;Laerm;57637;49.272;8.590;2023-07-31T03:36:50;36.61;33.41;43.40;;
70245;Laerm;57637;49.272;8.590;2023-07-31T03:39:15;37.11;33.11;51.01;;
70245;Laerm;57637;49.272;8.590;2023-07-31T03:41:40;36.18;33.13;42.87;;
70245;Laerm;57637;49.272;8.590;2023-07-31T03:44:06;36.74;31.97;55.14;;
70245;Laerm;57637;49.272;8.590;2023-07-31T03:46:31;36.70;33.21;45.36;;
70245;Laerm;57637;49.272;8.590;2023-07-31T03:48:56;35.51;33.14;46.30;;
70245;Laerm;57637;49.272;8.590;2023-07-31T03:51:22;37.02;32.73;50.17;;
70245;Laerm;57637;49.272;8.590;2023-07-31T03:53:47;35.87;32.80;44.06;;
70245;Laerm;57637;49.272;8.590;2023-07-31T03:56:13;35.96;32.65;43.86;;
70245;Laerm;57637;49.272;8.590;2023-07-31T03:58:38;35.46;32.71;47.92;;
70245;Laerm;57637;49.272;8.590;2023-07-31T04:01:04;35.81;32.78;45.46;;
70245;Laerm;57637;49.272;8.590;2023-07-31T04:03:29;37.47;32.56;49.98;;
70245;Laerm;57637;49.272;8.590;2023-07-31T04:05:55;36.70;32.43;49.23;;
70245;Laerm;57637;49.272;8.590;2023-07-31T04:08:22;39.45;32.36;58.98;;
70245;Laerm;57637;49.272;8.590;2023-07-31T04:10:47;38.66;32.79;50.34;;
70245;Laerm;57637;49.272;8.590;2023-07-31T04:13:12;37.67;32.96;47.70;;
70245;Laerm;57637;49.272;8.590;2023-07-31T04:15:38;40.68;33.12;52.19;;
70245;Laerm;57637;49.272;8.590;2023-07-31T04:18:04;39.51;34.30;48.79;;
70245;Laerm;57637;49.272;8.590;2023-07-31T04:20:29;38.86;34.18;56.34;;
70245;Laerm;57637;49.272;8.590;2023-07-31T04:22:55;40.02;34.40;59.34;;
70245;Laerm;57637;49.272;8.590;2023-07-31T04:25:20;40.00;33.41;51.63;;
70245;Laerm;57637;49.272;8.590;2023-07-31T04:27:45;38.10;33.64;50.18;;
70245;Laerm;57637;49.272;8.590;2023-07-31T04:30:11;38.03;33.43;47.18;;
70245;Laerm;57637;49.272;8.590;2023-07-31T04:32:36;39.62;34.45;51.30;;
70245;Laerm;57637;49.272;8.590;2023-07-31T04:35:02;39.18;33.28;53.20;;
70245;Laerm;57637;49.272;8.590;2023-07-31T04:37:27;36.47;33.15;53.12;;
70245;Laerm;57637;49.272;8.590;2023-07-31T04:39:53;36.66;33.31;43.49;;
70245;Laerm;57637;49.272;8.590;2023-07-31T04:42:18;36.48;33.93;44.62;;
70245;Laerm;57637;49.272;8.590;2023-07-31T04:44:44;36.33;32.76;55.31;;
70245;Laerm;57637;49.272;8.590;2023-07-31T04:47:09;38.39;33.58;57.94;;
70245;Laerm;57637;49.272;8.590;2023-07-31T04:49:34;37.15;33.24;49.00;;
70245;Laerm;57637;49.272;8.590;2023-07-31T04:52:00;37.74;33.27;54.46;;
70245;Laerm;57637;49.272;8.590;2023-07-31T04:54:25;40.82;33.13;58.81;;
70245;Laerm;57637;49.272;8.590;2023-07-31T04:56:50;39.74;32.62;58.10;;
70245;Laerm;57637;49.272;8.590;2023-07-31T04:59:17;40.16;32.35;60.04;;
70245;Laerm;57637;49.272;8.590;2023-07-31T05:01:42;42.61;32.93;64.84;;
70245;Laerm;57637;49.272;8.590;2023-07-31T05:04:12;40.35;33.14;54.23;;
70245;Laerm;57637;49.272;8.590;2023-07-31T05:06:37;39.40;33.35;57.57;;
70245;Laerm;57637;49.272;8.590;2023-07-31T05:09:02;40.23;33.46;55.14;;
70245;Laerm;57637;49.272;8.590;2023-07-31T05:11:28;41.60;33.20;58.33;;
70245;Laerm;57637;49.272;8.590;2023-07-31T05:13:53;37.40;32.84;55.96;;
70245;Laerm;57637;49.272;8.590;2023-07-31T05:16:18;38.54;32.71;60.04;;
70245;Laerm;57637;49.272;8.590;2023-07-31T05:18:44;39.90;33.45;54.71;;
70245;Laerm;57637;49.272;8.590;2023-07-31T05:21:09;41.26;32.81;56.48;;
70245;Laerm;57637;49.272;8.590;2023-07-31T05:23:34;40.05;33.02;59.14;;
70245;Laerm;57637;49.272;8.590;2023-07-31T05:26:04;40.30;32.77;56.84;;
70245;Laerm;57637;49.272;8.590;2023-07-31T05:28:30;38.18;31.99;55.30;;
70245;Laerm;57637;49.272;8.590;2023-07-31T05:31:02;43.35;33.58;57.79;;
70245;Laerm;57637;49.272;8.590;2023-07-31T05:33:28;37.66;32.53;51.75;;
70245;Laerm;57637;49.272;8.590;2023-07-31T05:35:53;40.82;32.94;56.11;;
70245;Laerm;57637;49.272;8.590;2023-07-31T05:38:19;42.18;33.78;62.32;;
70245;Laerm;57637;49.272;8.590;2023-07-31T05:40:44;38.03;33.51;54.76;;
70245;Laerm;57637;49.272;8.590;2023-07-31T05:43:09;42.34;33.02;62.37;;
70245;Laerm;57637;49.272;8.590;2023-07-31T05:45:35;41.27;32.90;55.93;;
70245;Laerm;57637;49.272;8.590;2023-07-31T05:48:02;42.65;33.09;64.03;;
70245;Laerm;57637;49.272;8.590;2023-07-31T05:50:27;38.33;33.68;51.14;;
70245;Laerm;57637;49.272;8.590;2023-07-31T05:52:52;40.71;32.87;64.48;;
70245;Laerm;57637;49.272;8.590;2023-07-31T05:55:18;39.05;32.62;61.35;;
70245;Laerm;57637;49.272;8.590;2023-07-31T05:57:43;39.85;32.64;62.40;;
70245;Laerm;57637;49.272;8.590;2023-07-31T06:00:13;37.99;32.37;53.31;;
70245;Laerm;57637;49.272;8.590;2023-07-31T06:02:39;44.11;33.47;63.75;;
70245;Laerm;57637;49.272;8.590;2023-07-31T06:05:05;38.28;33.71;55.65;;
70245;Laerm;57637;49.272;8.590;2023-07-31T06:07:33;42.14;34.89;56.01;;
70245;Laerm;57637;49.272;8.590;2023-07-31T06:09:58;45.74;34.09;68.23;;
70245;Laerm;57637;49.272;8.590;2023-07-31T06:12:33;40.11;33.85;54.65;;
70245;Laerm;57637;49.272;8.590;2023-07-31T06:15:03;39.24;33.63;63.84;;
70245;Laerm;57637;49.272;8.590;2023-07-31T06:17:28;42.99;33.97;67.38;;
70245;Laerm;57637;49.272;8.590;2023-07-31T06:19:56;41.20;33.32;61.60;;
70245;Laerm;57637;49.272;8.590;2023-07-31T06:22:21;40.88;33.33;63.98;;
70245;Laerm;57637;49.272;8.590;2023-07-31T06:24:46;40.89;34.22;52.83;;
70245;Laerm;57637;49.272;8.590;2023-07-31T06:27:12;54.54;46.05;59.03;;
70245;Laerm;57637;49.272;8.590;2023-07-31T06:29:37;53.59;45.62;59.38;;
70245;Laerm;57637;49.272;8.590;2023-07-31T06:32:03;54.42;46.13;65.74;;
70245;Laerm;57637;49.272;8.590;2023-07-31T06:34:28;53.98;40.36;64.54;;
70245;Laerm;57637;49.272;8.590;2023-07-31T06:36:55;50.78;34.79;65.53;;
70245;Laerm;57637;49.272;8.590;2023-07-31T06:39:20;43.55;34.07;60.30;;
70245;Laerm;57637;49.272;8.590;2023-07-31T06:41:46;50.05;34.64;59.51;;
70245;Laerm;57637;49.272;8.590;2023-07-31T06:44:11;51.52;33.89;77.89;;
70245;Laerm;57637;49.272;8.590;2023-07-31T06:46:37;54.29;46.51;61.28;;
70245;Laerm;57637;49.272;8.590;2023-07-31T06:49:05;55.00;47.64;76.54;;
70245;Laerm;57637;49.272;8.590;2023-07-31T06:51:31;53.81;36.47;60.28;;
70245;Laerm;57637;49.272;8.590;2023-07-31T06:53:57;55.02;37.01;60.40;;
70245;Laerm;57637;49.272;8.590;2023-07-31T06:56:23;54.68;46.54;68.41;;
70245;Laerm;57637;49.272;8.590;2023-07-31T06:58:48;58.43;33.98;79.73;;
70245;Laerm;57637;49.272;8.590;2023-07-31T07:01:14;51.62;34.21;60.27;;
70245;Laerm;57637;49.272;8.590;2023-07-31T07:03:39;54.73;46.76;60.17;;
70245;Laerm;57637;49.272;8.590;2023-07-31T07:06:05;51.79;38.54;58.55;;
70245;Laerm;57637;49.272;8.590;2023-07-31T07:08:30;51.50;35.09;59.62;;
70245;Laerm;57637;49.272;8.590;2023-07-31T07:10:55;54.75;46.24;66.01;;
70245;Laerm;57637;49.272;8.590;2023-07-31T07:13:21;53.63;34.27;71.16;;
70245;Laerm;57637;49.272;8.590;2023-07-31T07:15:51;44.71;33.64;56.97;;
70245;Laerm;57637;49.272;8.590;2023-07-31T07:18:16;39.69;33.31;57.34;;
70245;Laerm;57637;49.272;8.590;2023-07-31T07:20:53;40.73;33.28;60.71;;
70245;Laerm;57637;49.272;8.590;2023-07-31T07:23:19;53.55;38.92;61.72;;
70245;Laerm;57637;49.272;8.590;2023-07-31T07:25:46;52.90;35.66;66.46;;
70245;Laerm;57637;49.272;8.590;2023-07-31T07:28:12;47.74;33.11;57.42;;
70245;Laerm;57637;49.272;8.590;2023-07-31T07:30:38;53.32;35.08;59.51;;
70245;Laerm;57637;49.272;8.590;2023-07-31T07:33:03;50.23;34.86;58.11;;
70245;Laerm;57637;49.272;8.590;2023-07-31T07:35:29;53.12;34.81;62.77;;
70245;Laerm;57637;49.272;8.590;2023-07-31T07:37:55;52.16;35.44;60.44;;
70245;Laerm;57637;49.272;8.590;2023-07-31T07:40:21;58.38;33.75;77.74;;
70245;Laerm;57637;49.272;8.590;2023-07-31T07:42:50;37.83;33.09;55.26;;
70245;Laerm;57637;49.272;8.590;2023-07-31T07:45:34;45.90;32.92;57.61;;
70245;Laerm;57637;49.272;8.590;2023-07-31T07:47:59;57.90;36.42;80.49;;
70245;Laerm;57637;49.272;8.590;2023-07-31T07:50:24;56.30;49.83;69.76;;
70245;Laerm;57637;49.272;8.590;2023-07-31T07:52:50;59.08;50.12;73.55;;
70245;Laerm;57637;49.272;8.590;2023-07-31T07:55:15;56.52;46.55;66.92;;
70245;Laerm;57637;49.272;8.590;2023-07-31T07:57:41;58.63;50.23;68.19;;
70245;Laerm;57637;49.272;8.590;2023-07-31T08:00:07;58.19;49.22;75.04;;
70245;Laerm;57637;49.272;8.590;2023-07-31T08:02:32;58.27;51.89;73.39;;
70245;Laerm;57637;49.272;8.590;2023-07-31T08:04:57;58.74;51.45;66.96;;
70245;Laerm;57637;49.272;8.590;2023-07-31T08:07:23;56.35;45.07;65.93;;
70245;Laerm;57637;49.272;8.590;2023-07-31T08:09:48;54.30;39.38;63.32;;
70245;Laerm;57637;49.272;8.590;2023-07-31T08:12:14;54.04;46.28;77.53;;
70245;Laerm;57637;49.272;8.590;2023-07-31T08:14:39;59.79;48.95;68.48;;
70245;Laerm;57637;49.272;8.590;2023-07-31T08:17:05;60.02;52.32;66.70;;
70245;Laerm;57637;49.272;8.590;2023-07-31T08:19:30;52.62;38.02;58.28;;
70245;Laerm;57637;49.272;8.590;2023-07-31T08:21:56;58.16;51.57;66.17;;
70245;Laerm;57637;49.272;8.590;2023-07-31T08:24:21;56.85;46.78;67.50;;
70245;Laerm;57637;49.272;8.590;2023-07-31T08:26:47;54.24;46.77;66.15;;
70245;Laerm;57637;49.272;8.590;2023-07-31T08:29:13;56.51;49.28;63.28;;
70245;Laerm;57637;49.272;8.590;2023-07-31T08:31:39;56.14;44.93;65.17;;
70245;Laerm;57637;49.272;8.590;2023-07-31T08:34:16;55.30;44.10;61.00;;
70245;Laerm;57637;49.272;8.590;2023-07-31T08:36:42;53.56;45.57;63.79;;
70245;Laerm;57637;49.272;8.590;2023-07-31T08:39:07;53.66;46.17;59.08;;
70245;Laerm;57637;49.272;8.590;2023-07-31T08:41:38;55.33;48.81;60.40;;
70245;Laerm;57637;49.272;8.590;2023-07-31T08:44:04;55.10;49.52;60.76;;
70245;Laerm;57637;49.272;8.590;2023-07-31T08:46:30;56.51;49.98;67.44;;
70245;Laerm;57637;49.272;8.590;2023-07-31T08:48:56;50.74;40.32;59.74;;
70245;Laerm;57637;49.272;8.590;2023-07-31T08:51:23;51.31;38.25;59.48;;
70245;Laerm;57637;49.272;8.590;2023-07-31T08:53:49;53.31;36.45;60.03;;
70245;Laerm;57637;49.272;8.590;2023-07-31T08:56:15;52.73;34.80;59.48;;
70245;Laerm;57637;49.272;8.590;2023-07-31T08:58:42;51.24;34.94;59.66;;
70245;Laerm;57637;49.272;8.590;2023-07-31T09:01:08;49.87;34.43;62.18;;
70245;Laerm;57637;49.272;8.590;2023-07-31T09:03:34;53.31;34.12;60.87;;
70245;Laerm;57637;49.272;8.590;2023-07-31T09:06:03;53.30;45.11;58.19;;
70245;Laerm;57637;49.272;8.590;2023-07-31T09:08:31;51.48;34.13;60.06;;
70245;Laerm;57637;49.272;8.590;2023-07-31T09:11:01;45.32;33.90;71.54;;
70245;Laerm;57637;49.272;8.590;2023-07-31T09:13:29;42.42;34.35;55.31;;
70245;Laerm;57637;49.272;8.590;2023-07-31T09:15:55;46.01;34.73;66.28;;
70245;Laerm;57637;49.272;8.590;2023-07-31T09:18:20;45.36;34.69;70.34;;
70245;Laerm;57637;49.272;8.590;2023-07-31T09:21:06;42.08;35.11;56.28;;
70245;Laerm;57637;49.272;8.590;2023-07-31T09:23:46;46.15;35.80;61.14;;
70245;Laerm;57637;49.272;8.590;2023-07-31T09:26:33;47.44;37.18;66.73;;
70245;Laerm;57637;49.272;8.590;2023-07-31T09:28:59;50.65;36.51;65.91;;
70245;Laerm;57637;49.272;8.590;2023-07-31T09:31:41;48.05;38.10;58.12;;
70245;Laerm;57637;49.272;8.590;2023-07-31T09:34:08;54.50;46.82;63.30;;
70245;Laerm;57637;49.272;8.590;2023-07-31T09:36:43;54.05;46.57;58.64;;
70245;Laerm;57637;49.272;8.590;2023-07-31T09:39:10;56.17;48.24;64.20;;
70245;Laerm;57637;49.272;8.590;2023-07-31T09:41:38;55.39;43.93;70.30;;
70245;Laerm;57637;49.272;8.590;2023-07-31T09:47:23;53.10;38.06;69.19;;
70245;Laerm;57637;49.272;8.590;2023-07-31T09:49:51;53.82;41.47;71.77;;
70245;Laerm;57637;49.272;8.590;2023-07-31T09:52:17;52.78;45.01;64.54;;
70245;Laerm;57637;49.272;8.590;2023-07-31T09:54:42;52.44;40.59;64.15;;
70245;Laerm;57637;49.272;8.590;2023-07-31T09:57:08;52.47;40.46;75.58;;
70245;Laerm;57637;49.272;8.590;2023-07-31T09:59:35;52.92;37.31;77.67;;
70245;Laerm;57637;49.272;8.590;2023-07-31T10:02:00;52.31;36.40;84.55;;
70245;Laerm;57637;49.272;8.590;2023-07-31T10:04:27;47.53;38.77;68.50;;
70245;Laerm;57637;49.272;8.590;2023-07-31T10:06:53;51.34;40.16;69.22;;
70245;Laerm;57637;49.272;8.590;2023-07-31T10:09:19;46.10;36.18;61.89;;
70245;Laerm;57637;49.272;8.590;2023-07-31T10:11:52;43.66;34.60;62.55;;
70245;Laerm;57637;49.272;8.590;2023-07-31T10:14:19;40.26;35.42;49.93;;
70245;Laerm;57637;49.272;8.590;2023-07-31T10:16:45;41.57;34.40;62.26;;
70245;Laerm;57637;49.272;8.590;2023-07-31T10:19:10;41.86;35.15;60.76;;
70245;Laerm;57637;49.272;8.590;2023-07-31T10:21:37;41.50;35.12;54.19;;
70245;Laerm;57637;49.272;8.590;2023-07-31T10:24:04;44.75;35.41;57.57;;
70245;Laerm;57637;49.272;8.590;2023-07-31T10:26:31;48.52;37.03;66.42;;
70245;Laerm;57637;49.272;8.590;2023-07-31T10:28:58;51.59;35.12;62.95;;
70245;Laerm;57637;49.272;8.590;2023-07-31T10:31:24;43.43;33.59;59.59;;
70245;Laerm;57637;49.272;8.590;2023-07-31T10:33:52;40.17;33.85;57.48;;
70245;Laerm;57637;49.272;8.590;2023-07-31T10:36:21;40.15;34.59;59.16;;
70245;Laerm;57637;49.272;8.590;2023-07-31T10:38:49;40.61;35.47;57.72;;
70245;Laerm;57637;49.272;8.590;2023-07-31T10:41:16;40.96;35.31;55.48;;
70245;Laerm;57637;49.272;8.590;2023-07-31T10:43:41;40.61;33.63;53.29;;
70245;Laerm;57637;49.272;8.590;2023-07-31T10:46:08;39.17;33.35;51.01;;
70245;Laerm;57637;49.272;8.590;2023-07-31T10:48:35;42.44;35.13;61.41;;
70245;Laerm;57637;49.272;8.590;2023-07-31T10:51:09;41.96;36.52;58.91;;
70245;Laerm;57637;49.272;8.590;2023-07-31T10:53:38;43.76;37.20;60.46;;
70245;Laerm;57637;49.272;8.590;2023-07-31T10:56:06;43.76;36.40;52.55;;
70245;Laerm;57637;49.272;8.590;2023-07-31T10:58:33;42.99;36.56;56.54;;
70245;Laerm;57637;49.272;8.590;2023-07-31T11:01:01;41.62;36.12;57.71;;
70245;Laerm;57637;49.272;8.590;2023-07-31T11:03:55;44.56;35.11;69.11;;
70245;Laerm;57637;49.272;8.590;2023-07-31T11:06:22;43.54;34.71;55.81;;
70245;Laerm;57637;49.272;8.590;2023-07-31T11:08:49;41.55;35.55;56.87;;
70245;Laerm;57637;49.272;8.590;2023-07-31T11:11:17;39.54;35.10;51.83;;
70245;Laerm;57637;49.272;8.590;2023-07-31T11:13:52;40.44;34.58;60.96;;
70245;Laerm;57637;49.272;8.590;2023-07-31T11:16:19;46.75;35.92;66.94;;
70245;Laerm;57637;49.272;8.590;2023-07-31T11:18:46;45.06;35.16;66.86;;
70245;Laerm;57637;49.272;8.590;2023-07-31T11:21:21;48.97;36.98;69.35;;
70245;Laerm;57637;49.272;8.590;2023-07-31T11:23:57;47.00;39.58;67.95;;
70245;Laerm;57637;49.272;8.590;2023-07-31T11:26:24;46.00;40.20;65.21;;
70245;Laerm;57637;49.272;8.590;2023-07-31T11:28:50;42.33;36.09;58.21;;
70245;Laerm;57637;49.272;8.590;2023-07-31T11:31:17;49.96;34.04;75.29;;
70245;Laerm;57637;49.272;8.590;2023-07-31T11:33:43;41.17;35.39;53.52;;
70245;Laerm;57637;49.272;8.590;2023-07-31T11:36:16;53.87;34.67;77.70;;
70245;Laerm;57637;49.272;8.590;2023-07-31T11:38:42;45.49;34.54;71.47;;
70245;Laerm;57637;49.272;8.590;2023-07-31T11:41:07;47.88;34.03;73.86;;
70245;Laerm;57637;49.272;8.590;2023-07-31T11:43:33;43.55;34.67;70.35;;
70245;Laerm;57637;49.272;8.590;2023-07-31T11:46:17;39.18;33.55;56.51;;
70245;Laerm;57637;49.272;8.590;2023-07-31T11:48:44;42.48;34.64;71.14;;
70245;Laerm;57637;49.272;8.590;2023-07-31T11:51:10;40.67;35.13;60.70;;
70245;Laerm;57637;49.272;8.590;2023-07-31T11:53:51;40.11;34.11;56.22;;
70245;Laerm;57637;49.272;8.590;2023-07-31T11:56:19;41.96;33.86;55.99;;
70245;Laerm;57637;49.272;8.590;2023-07-31T11:58:51;40.67;34.16;59.49;;
70245;Laerm;57637;49.272;8.590;2023-07-31T12:01:19;39.75;33.86;58.60;;
70245;Laerm;57637;49.272;8.590;2023-07-31T12:03:47;39.72;33.91;54.78;;
70245;Laerm;57637;49.272;8.590;2023-07-31T12:06:13;40.70;34.42;55.12;;
70245;Laerm;57637;49.272;8.590;2023-07-31T12:08:38;44.16;34.15;71.88;;
70245;Laerm;57637;49.272;8.590;2023-07-31T12:11:05;43.69;35.03;69.30;;
70245;Laerm;57637;49.272;8.590;2023-07-31T12:13:32;40.78;34.90;53.15;;
70245;Laerm;57637;49.272;8.590;2023-07-31T12:16:00;40.48;34.15;55.36;;
70245;Laerm;57637;49.272;8.590;2023-07-31T12:18:29;52.38;37.53;62.12;;
70245;Laerm;57637;49.272;8.590;2023-07-31T12:23:26;63.34;44.35;69.43;;
70245;Laerm;57637;49.272;8.590;2023-07-31T12:28:50;61.58;55.79;70.63;;
70245;Laerm;57637;49.272;8.590;2023-07-31T12:31:21;60.60;52.56;72.97;;
70245;Laerm;57637;49.272;8.590;2023-07-31T12:33:49;59.55;41.15;72.16;;
70245;Laerm;57637;49.272;8.590;2023-07-31T12:36:17;58.22;40.62;68.86;;
70245;Laerm;57637;49.272;8.590;2023-07-31T12:38:42;59.06;50.94;73.72;;
70245;Laerm;57637;49.272;8.590;2023-07-31T12:41:08;60.26;43.40;72.68;;
70245;Laerm;57637;49.272;8.590;2023-07-31T12:43:38;60.71;42.99;69.56;;
70245;Laerm;57637;49.272;8.590;2023-07-31T12:46:04;61.82;54.52;67.97;;
70245;Laerm;57637;49.272;8.590;2023-07-31T12:48:31;65.53;56.83;77.41;;
70245;Laerm;57637;49.272;8.590;2023-07-31T12:50:57;64.93;59.19;72.49;;
70245;Laerm;57637;49.272;8.590;2023-07-31T12:53:22;64.63;58.52;70.71;;
70245;Laerm;57637;49.272;8.590;2023-07-31T12:55:47;64.93;42.64;73.82;;
70245;Laerm;57637;49.272;8.590;2023-07-31T12:58:13;50.40;38.24;65.99;;
70245;Laerm;57637;49.272;8.590;2023-07-31T13:00:38;53.06;36.28;75.94;;
70245;Laerm;57637;49.272;8.590;2023-07-31T13:03:04;52.83;34.93;71.63;;
70245;Laerm;57637;49.272;8.590;2023-07-31T13:05:29;53.53;34.99;76.59;;
70245;Laerm;57637;49.272;8.590;2023-07-31T13:07:55;49.75;36.82;76.65;;
70245;Laerm;57637;49.272;8.590;2023-07-31T13:10:21;41.61;33.27;53.17;;
70245;Laerm;57637;49.272;8.590;2023-07-31T13:12:47;45.41;35.66;56.40;;
70245;Laerm;57637;49.272;8.590;2023-07-31T13:15:12;50.61;35.44;74.04;;
70245;Laerm;57637;49.272;8.590;2023-07-31T13:17:37;45.65;35.00;67.67;;
70245;Laerm;57637;49.272;8.590;2023-07-31T13:20:03;49.64;35.04;70.56;;
70245;Laerm;57637;49.272;8.590;2023-07-31T13:22:30;45.34;35.68;68.93;;
70245;Laerm;57637;49.272;8.590;2023-07-31T13:24:55;42.96;34.70;65.43;;
70245;Laerm;57637;49.272;8.590;2023-07-31T13:27:20;51.10;34.59;71.83;;
70245;Laerm;57637;49.272;8.590;2023-07-31T13:29:56;56.55;34.16;73.99;;
70245;Laerm;57637;49.272;8.590;2023-07-31T13:32:21;59.22;34.81;75.79;;
70245;Laerm;57637;49.272;8.590;2023-07-31T13:34:47;59.36;34.45;76.20;;
70245;Laerm;57637;49.272;8.590;2023-07-31T13:37:14;60.33;34.29;76.08;;
70245;Laerm;57637;49.272;8.590;2023-07-31T13:39:43;60.36;34.44;76.51;;
70245;Laerm;57637;49.272;8.590;2023-07-31T13:42:09;61.40;34.56;76.92;;
70245;Laerm;57637;49.272;8.590;2023-07-31T13:44:41;61.24;34.99;76.37;;
70245;Laerm;57637;49.272;8.590;2023-07-31T13:47:07;62.75;35.54;78.85;;
70245;Laerm;57637;49.272;8.590;2023-07-31T13:49:33;62.69;33.71;77.07;;
70245;Laerm;57637;49.272;8.590;2023-07-31T13:51:59;63.53;38.00;78.49;;
70245;Laerm;57637;49.272;8.590;2023-07-31T13:54:25;62.76;38.47;77.54;;
70245;Laerm;57637;49.272;8.590;2023-07-31T13:56:53;62.19;36.18;78.52;;
70245;Laerm;57637;49.272;8.590;2023-07-31T13:59:19;59.90;40.83;76.37;;